РПИ Душанбе

 

Руководитель РПИ

Evgeny Vygornitsky*

Инструкторы РПИ
Evgeny Vygornitsky (Supervisor)
Sergey Balandin (Senior Instructor)
Vitaliy Alekseyev (Instructor)
Входит в состав
ЗЦ Центральная Азия

Диспетчеры РПИ

Диспетчер Рейтинг Допуски *

Аэропорты РПИ

ICAO Город Название Погода
UTDD Душанбе Душанбе UTDD 020100Z VRB01MPS 8000 SCT038 25/13 Q1005 R09/D NOSIG RMK QFE686/0915
UTDL Худжанд Худжанд UTDL 020100Z 27004MPS 9999 NSC 23/05 Q1007 R26/CLRD70 NOSIG RMK QFE717/0957